Shinji Honda

Chefscout - Kashima Antlers
3 Apr 2027
Samstag
Verarbeitung

Persönlichkeit

Anpassungsfähigkeit (5) Ehrgeiz (12) Kontroverse (15) Loyalität (10) Druck (15) Professionalität (10) Fairness (17) Temperament (2)

Profil

Trainerstil Demokratisch
Lizenz Kontinentale B
Entschlossenheit 13
Menschenführung 7
Motivation 7
Disziplin 11
Arbeitszufriedenheit
92%
Ermüdung
0%
Rolle Chefscout
Gehalt 36.6K p/W
Vertrag 14.03.2029

Leistung

Verhalten Gut
Trainingseffektivität
49%
Spielerentwicklung
30%
Verletzungsprävention
55%
Taktische Umsetzung
50%

Letzte Ereignisse

Empfahl ein Transferziel jetzt
Empfahl ein Transferziel jetzt
Empfahl ein Transferziel jetzt
Empfahl ein Transferziel jetzt
Nahm an einer Scouting-Besprechung teil jetzt
Nahm an einer Scouting-Besprechung teil jetzt
Nahm an einer Scouting-Besprechung teil jetzt
Spieler begutachtet jetzt

Aktuell beobachtet

269
Spieler Verein Status Fähigkeit Vertrauen Beobachtet Zuletzt beobachtet Letzte Stimme
Brayan León Mamelodi Sundowns Aktiv 111 / 128 40% 3 02.04.2027 -
Joe Gelhardt Hull City Aktiv 124 / 126 40% 2 02.04.2027 -
Konan N'Dri Lecce Aktiv 135 / 127 40% 2 02.04.2027 -
Josh Coburn Millwall Aktiv 127 / 127 40% 2 01.04.2027 -
Che Adams Torino Aktiv 138 / 147 40% 1 01.04.2027 -
Aidomo Emakhu Oxford United Aktiv 117 / 124 40% 1 01.04.2027 -
Aune Heggebø West Bromwich Albion Aktiv 123 / 123 40% 3 30.03.2027 -
Haji Wright Coventry City Aktiv 130 / 135 40% 3 30.03.2027 -
Elis Bishesari IFK Goteborg Aktiv 117 / 119 40% 7 29.03.2027 -
Dom Ballard Leyton Orient Aktiv 127 / 136 40% 3 29.03.2027 Mehr Infos nötig
Taiwo Awoniyi Coventry City Aktiv 146 / 146 40% 5 29.03.2027 -
Yousef Salech Cardiff City Aktiv 126 / 125 40% 2 29.03.2027 -
Dylan Moody Southampton Aktiv 96 / 122 40% 1 29.03.2027 -
Tommy Setford Arsenal Aktiv 121 / 131 40% 1 29.03.2027 -
Morgan Whittaker Middlesbrough Aktiv 132 / 131 40% 2 27.03.2027 -
Patson Daka Leicester City Aktiv 121 / 126 40% 1 27.03.2027 -
Tom Cannon Sheffield United Aktiv 133 / 136 40% 1 27.03.2027 -
Mihailo Ivanović Millwall Aktiv 118 / 129 40% 2 26.03.2027 -
Sam Greenwood Bristol City Aktiv 125 / 114 40% 2 26.03.2027 -
Alexei Rojas Fedorushchenko Arsenal Aktiv 111 / 123 40% 1 26.03.2027 -
Joe Wallis PWD Bamenda Aktiv 79 / 91 40% 1 26.03.2027 -
Luis Montilla San Telmo Aktiv 95 / 105 40% 1 26.03.2027 -
Kyle Wootton Stockport County Aktiv 131 / 111 40% 2 24.03.2027 -
Gianluca Scamacca Atalanta Aktiv 141 / 134 40% 1 24.03.2027 -
Santino Barbi Talleres Aktiv 113 / 126 40% 5 23.03.2027 -
Walter Molina Defensa y Justicia Aktiv 86 / 104 40% 2 23.03.2027 -
Peter Shalulile Mamelodi Sundowns Aktiv 137 / 139 40% 6 23.03.2027 -
Bertrand Traoré Sunderland Aktiv 139 / 134 40% 1 23.03.2027 -
George Evans Millwall Aktiv 109 / 102 40% 1 23.03.2027 -
Yusuke Matsuo CSKA Moscow Aktiv 130 / 136 40% 8 20.03.2027 -
Boris Barisic Zadar Aktiv 93 / 98 40% 5 20.03.2027 -
Giovanni Stellato Guidonia Montecelio Aktiv 90 / 91 40% 5 20.03.2027 -
Martín Almeida Luzern Aktiv 92 / 113 40% 1 20.03.2027 -
Alex Kouto Horio Pisano Nagoya Grampus Aktiv 109 / 122 40% 8 19.03.2027 -
Matías Zorzoli Newell's Old Boys Aktiv 89 / 101 40% 2 19.03.2027 -
Thierno Barry Everton Aktiv 139 / 139 40% 1 17.03.2027 -
Callum O'Hare Sheffield United Aktiv 127 / 119 40% 1 17.03.2027 -
Iqraam Rayners Mamelodi Sundowns Aktiv 126 / 117 40% 6 16.03.2027 -
Dany Mota Monza Aktiv 129 / 140 40% 1 16.03.2027 -
Lorent Tolaj Plymouth Argyle Aktiv 117 / 115 40% 1 16.03.2027 -
Josh Windass Wrexham Aktiv 121 / 112 40% 2 15.03.2027 -
Largie Ramazani Leeds United Aktiv 132 / 130 40% 2 15.03.2027 -
Nico Paz Como Aktiv 154 / 160 40% 1 15.03.2027 -
Keagan Mothiba SuperSport United Aktiv 114 / 110 40% 3 14.03.2027 -
Cameron Archer Southampton Aktiv 119 / 115 40% 1 13.03.2027 -
Achraf Bencharki Al Ahly Aktiv 133 / 124 40% 1 13.03.2027 -
Percy Erasmus SuperSport United Aktiv 133 / 134 40% 4 12.03.2027 -
Gonçalo Ribeiro Porto Aktiv 87 / 100 40% 4 12.03.2027 -
Facundo Quintana Defensa y Justicia Aktiv 106 / 112 40% 3 12.03.2027 -
Gonzalo Fulham Aktiv 150 / 149 40% 2 12.03.2027 -
Jack Kortkamp Sporting Kansas City Aktiv 104 / 97 40% 1 12.03.2027 -
Salah Mohsen El Masry Aktiv 117 / 106 40% 1 10.03.2027 -
Josh Koroma Leyton Orient Aktiv 114 / 113 40% 2 09.03.2027 -
Evidence Makgopa Orlando Pirates Aktiv 121 / 122 40% 2 06.03.2027 -
Dominic Calvert-Lewin Leeds United Aktiv 151 / 145 40% 1 06.03.2027 -
Jovon Makama Norwich City Aktiv 119 / 130 40% 1 06.03.2027 -
Giacomo Raspadori Atalanta Aktiv 155 / 151 40% 2 05.03.2027 -
Adnan Courtois KV Oostende Aktiv 126 / 135 40% 1 04.03.2027 -
Jean-Luc Morin Tours Aktiv 144 / 138 40% 1 03.03.2027 -
Johan Manzambi Aston Villa Aktiv 150 / 145 40% 1 02.03.2027 -
Lennon Miller Udinese Aktiv 127 / 146 40% 1 02.03.2027 -
Álex Jiménez Bournemouth Aktiv 144 / 150 40% 1 02.03.2027 -
Mohamed-Ali Cho Hull City Aktiv 143 / 135 40% 3 01.03.2027 -
Moncef Zekri Sporting CP Aktiv 104 / 116 40% 2 27.02.2027 -
Kobbie Mainoo Manchester United Aktiv 146 / 153 40% 1 27.02.2027 -
Lucas Jetten Cambuur Aktiv 117 / 107 40% 1 27.02.2027 -
Surprise Manthosi Polokwane City Aktiv 92 / 109 40% 3 24.02.2027 -
Maldini Kacurri Grimsby Town Aktiv 94 / 106 40% 3 24.02.2027 -
Raymond Agyemang Aduana Stars Aktiv 82 / 76 40% 1 24.02.2027 -
Rhys Chadwick Peterborough United Aktiv 90 / 116 40% 1 22.02.2027 -
Honest Ahanor Atalanta Aktiv 120 / 147 40% 1 22.02.2027 -
Felix Appiah WAFA Aktiv 94 / 88 40% 1 20.02.2027 -
Dylan Lawlor Cardiff City Aktiv 106 / 131 40% 1 20.02.2027 -
Juan David Arizala Udinese Aktiv 131 / 135 40% 1 20.02.2027 -
Rabby Nzingoula West Bromwich Albion Aktiv 120 / 120 40% 4 19.02.2027 -
Victor Ehibe Real Bamako Aktiv 80 / 84 40% 2 19.02.2027 -
Riyad Idrissi Cagliari Aktiv 130 / 137 40% 2 18.02.2027 -
Daniel Banjaqui Benfica Aktiv 112 / 123 40% 1 18.02.2027 -
Harry Cornick AFC Wimbledon Aktiv 97 / 103 40% 1 17.02.2027 -
Yuki Kakita FC Copenhagen Aktiv 139 / 117 40% 1 17.02.2027 -
Kagiso Malinga Bidvest Wits Verloren 96 / 111 40% 1 17.02.2027 -
Abdul Bukari WAFA Aktiv 89 / 86 40% 1 17.02.2027 -
Mattia Mannini Juve Stabia Aktiv 104 / 110 40% 1 17.02.2027 -
Arjan Malić Sturm Graz Aktiv 124 / 129 40% 1 17.02.2027 -
Itumeleng Zungu Free State Stars Aktiv 117 / 134 40% 3 16.02.2027 -
Leandro Martins Benfica Aktiv 95 / 84 40% 2 16.02.2027 -
Edarlyn Reyes Arsenal Tula Aktiv 108 / 120 40% 2 15.02.2027 -
Carlos Paraco Metalist Aktiv 116 / 105 40% 1 15.02.2027 -
Armstrong Oko-Flex Levski Aktiv 120 / 122 40% 1 15.02.2027 -
Gonçalo Oliveira Benfica Aktiv 116 / 119 40% 2 13.02.2027 -
Simphiwe Selepe Orlando Pirates Aktiv 110 / 115 40% 1 08.02.2027 -
Markus Walker OB Aktiv 112 / 116 40% 1 05.02.2027 -
Davinchi Getafe Aktiv 117 / 136 40% 1 05.02.2027 -
John Okoye Ebuka Ittihad Aktiv 124 / 112 40% 1 04.02.2027 -
Michael Smith Mansfield Town Verloren 111 / 114 40% 1 04.02.2027 -
Emmanuel Boateng Hapoel Tel Aviv Aktiv 125 / 116 40% 2 03.02.2027 -
Martim Cunha Porto Aktiv 99 / 107 40% 1 03.02.2027 -
Tiago Freitas Benfica Aktiv 104 / 107 40% 1 03.02.2027 -
Panagiotis Kikianis Adelaide United Aktiv 95 / 110 40% 1 02.02.2027 -
Roger Hinojo Espanyol Aktiv 110 / 127 40% 2 01.02.2027 -
Vinícius Lira Santos Aktiv 119 / 130 40% 1 01.02.2027 -
Bernardo Lima Porto Aktiv 95 / 104 40% 1 01.02.2027 -
Evidence Mokoena Platinum Stars Aktiv 99 / 89 40% 1 30.01.2027 -
Marko Božić Wisla Krakow Aktiv 110 / 115 40% 1 30.01.2027 -
Sam Nombe Milton Keynes Dons Aktiv 118 / 95 40% 2 28.01.2027 -
Ondřej Lingr Korona Aktiv 120 / 112 40% 1 28.01.2027 -
Mattia Bortolussi Padova Aktiv 119 / 118 40% 1 28.01.2027 -
Cristian Shpendi Cesena Aktiv 126 / 130 40% 1 26.01.2027 -
Alexandr Sojka Viktoria Plzen Aktiv 127 / 135 40% 1 26.01.2027 -
Yuto Suzuki Shonan Bellmare Aktiv 126 / 127 76% 1 25.01.2027 Befürworten
Nardin Mulahusejnović Vojvodina Aktiv 128 / 121 40% 3 24.01.2027 -
Everton Bala Levski Aktiv 127 / 134 40% 1 24.01.2027 -
Solly Khunyedi Bloemfontein Celtic Aktiv 102 / 95 40% 1 23.01.2027 -
Matty Stevens AFC Wimbledon Aktiv 109 / 117 40% 1 18.01.2027 -
Franko Kovačević Ferencvaros Aktiv 123 / 121 40% 2 12.01.2027 -
Tomoya Miki Avispa Fukuoka Verloren 122 / 122 76% 1 08.01.2027 -
Mao Hosoya Corinthians Aktiv 134 / 135 67% 1 05.01.2027 Befürworten
Sampson Dweh Viktoria Plzen Aktiv 133 / 134 66% 1 05.01.2027 Befürworten
Rok Zajc NK Domzale Aktiv 126 / 120 40% 2 04.01.2027 -
Ramahlwe Mphela Free State Stars Aktiv 97 / 93 40% 4 02.01.2027 -
Luka Lijeskić Radnicki 1923 Aktiv 108 / 109 40% 6 02.01.2027 Beobachten
Rivaldo Ngcobo Free State Stars Aktiv 106 / 107 40% 1 02.01.2027 -
Assad Al Hamlawi Universitatea Craiova Aktiv 123 / 113 40% 1 02.01.2027 -
Bojan Radulović Huddersfield Town Aktiv 114 / 112 40% 1 02.01.2027 -
Raúl Jiménez Wolverhampton Aktiv 140 / 149 40% 2 01.01.2027 -
Emil Riis Bristol City Aktiv 116 / 116 40% 1 01.01.2027 -
Tomáš Chorý Slavia Prague Aktiv 141 / 152 40% 1 01.01.2027 -
Iwan Morgan Grimsby Town Aktiv 108 / 103 40% 1 31.12.2026 -
Malik Mothersille Stockport County Aktiv 119 / 120 40% 3 30.12.2026 -
Harry Leonard Peterborough United Aktiv 106 / 109 40% 1 30.12.2026 -
Edoardo Motta Lazio Aktiv 126 / 112 40% 2 28.12.2026 -
Maxim Shichanin Zenit Aktiv 94 / 93 40% 6 27.12.2026 -
Jakub Badžgoň MSK Zilina Aktiv 104 / 110 40% 4 26.12.2026 -
Lautaro Herrera Estudiantes Aktiv 98 / 97 40% 3 26.12.2026 -
Pierce Charles Manchester City Aktiv 125 / 134 40% 5 25.12.2026 -
Johannes Eggestein Austria Wien Aktiv 135 / 118 40% 2 25.12.2026 -
Ammar Ramadan DAC Dunajska Streda Aktiv 119 / 131 40% 1 25.12.2026 -
Tadeo Allende Inter Miami CF Aktiv 128 / 116 40% 2 24.12.2026 -
Osher Davida Maccabi Tel Aviv Aktiv 125 / 111 40% 1 24.12.2026 -
Kimito Nono Gamba Osaka Aktiv 129 / 134 40% 1 24.12.2026 -
Ryuya Nishio Omiya Ardija Aktiv 129 / 129 40% 1 24.12.2026 -
Hirokazu Ishihara FC Tokyo Aktiv 135 / 125 40% 1 24.12.2026 -
Emiliano Zacca Deportivo Riestra Aktiv 91 / 92 40% 2 21.12.2026 -
Stephen McMullan Fleetwood Town Aktiv 91 / 86 40% 3 20.12.2026 -
Nicholas Michalski Blackburn Rovers Aktiv 83 / 96 40% 2 19.12.2026 -
Wataru Goto FC Tokyo Aktiv 94 / 95 40% 6 18.12.2026 -
Kwame Opoku Asante Kotoko Aktiv 93 / 110 40% 1 18.12.2026 -
Matěj Vydra Viktoria Plzen Aktiv 132 / 140 40% 1 18.12.2026 -
Alby Kelly-Heald Wellington Phoenix Aktiv 92 / 103 40% 3 16.12.2026 -
Gian Piaggio Colón Aktiv 89 / 98 40% 1 15.12.2026 -
Enrique Maza Atlético Tucumán Aktiv 94 / 93 40% 1 15.12.2026 -
Axel Afonso Atlético Tucumán Aktiv 82 / 101 40% 1 15.12.2026 -
Viktor Baier Viktoria Plzen Aktiv 111 / 118 40% 3 14.12.2026 -
Máximo Núñez Los Andes Aktiv 88 / 99 40% 1 13.12.2026 -
Naphtali Mokoena Bloemfontein Celtic Aktiv 91 / 92 40% 3 11.12.2026 -
Mohammad Gandomi Hapoel Kfar Saba Aktiv 87 / 85 40% 1 10.12.2026 -
Alfonso Álvarez Ferro Carril Oeste Aktiv 87 / 92 40% 1 09.12.2026 -
Santiago Garro Almirante Brown Aktiv 82 / 86 40% 1 08.12.2026 -
Matej Trusa DAC Dunajska Streda Aktiv 119 / 101 40% 1 08.12.2026 -
Mamour N'Diaye Sarpsborg 08 Aktiv 113 / 126 40% 9 05.12.2026 -
Diego Valencia Gornik Leczna Aktiv 112 / 103 40% 1 05.12.2026 -
Sergey Pinyaev Lokomotiv Moscow Aktiv 136 / 123 40% 1 05.12.2026 -
Helinho Toluca Aktiv 124 / 138 40% 1 05.12.2026 -
Nicolás Fernández Belgrano Aktiv 127 / 125 40% 1 02.12.2026 -
Pedro Bravo FC Midtjylland Aktiv 130 / 116 40% 2 01.12.2026 -
Oli McBurnie Hull City Aktiv 132 / 133 40% 1 01.12.2026 -
Robert FC Copenhagen Aktiv 134 / 130 40% 1 01.12.2026 -
Antoine Griezmann Orlando City Aktiv 154 / 147 40% 4 28.11.2026 -
Erik Botheim Malmo FF Aktiv 121 / 137 40% 3 28.11.2026 -
Marko Livaja Hajduk Split Aktiv 141 / 141 40% 1 28.11.2026 -
Carles Gil New England Revolution Aktiv 139 / 132 40% 3 26.11.2026 -
Tomás Bais Lanús Aktiv 84 / 88 40% 1 25.11.2026 -
Muhammadyusuf Sobirov Bunyodkor Aktiv 99 / 116 40% 2 23.11.2026 -
Toby Steward Portsmouth Aktiv 96 / 118 40% 2 23.11.2026 -
Thiago Perruisset Boca Juniors Aktiv 87 / 103 40% 2 22.11.2026 -
Luka Veličković Benfica Aktiv 75 / 84 40% 2 21.11.2026 -
Yoshinori Muto Vissel Kobe Aktiv 132 / 129 40% 2 21.11.2026 -
Camilo Durán Bloemfontein Celtic Aktiv 112 / 132 40% 3 21.11.2026 -
Santiago Gutiérrez New York City Aktiv 97 / 92 40% 1 21.11.2026 -
Ramiro Buratti River Plate Aktiv 89 / 108 40% 2 19.11.2026 -
Kayne Rizvanovich Minnesota United FC Aktiv 78 / 105 40% 3 18.11.2026 -
César Bautista Sporting Cristal Aktiv 82 / 87 40% 1 18.11.2026 -
Facundo Suárez Instituto Aktiv 124 / 124 40% 1 18.11.2026 -
Nikolay Komlichenko Lokomotiv Moscow Aktiv 117 / 114 40% 2 17.11.2026 -
Lucas Passerini Belgrano Aktiv 129 / 116 40% 1 16.11.2026 -
Yorbe Vertessen Red Bull Salzburg Aktiv 125 / 116 40% 1 16.11.2026 -
George Puşcaş Dinamo Bucharest Aktiv 115 / 125 40% 1 14.11.2026 -
Juan Manuel Centurión Independiente Aktiv 89 / 109 40% 1 12.11.2026 -
Ignacio Ramírez Newell's Old Boys Aktiv 128 / 121 40% 1 11.11.2026 -
Reda Khadra Qarabag Aktiv 125 / 118 40% 2 08.11.2026 -
Matthias Seidl Rapid Wien Aktiv 126 / 125 40% 1 08.11.2026 -
Jhon Córdoba Krasnodar Aktiv 131 / 149 40% 1 04.11.2026 -
Derik Lacerda Kawasaki Frontale Aktiv 121 / 124 40% 1 04.11.2026 -
Ignacio Abarza Huracán Aktiv 87 / 95 40% 1 04.11.2026 -
José Barreto Fehervar Aktiv 116 / 101 40% 1 02.11.2026 -
Erison Kawasaki Frontale Aktiv 125 / 130 40% 2 01.11.2026 -
Robert Petkovic Zadar Aktiv 133 / 138 40% 2 01.11.2026 -
Tojiro Kubo Kashiwa Reysol Aktiv 131 / 128 40% 1 01.11.2026 -
Haris Tabaković Red Bull Salzburg Aktiv 133 / 142 40% 1 01.11.2026 Mehr Infos nötig
Luke Campbell Sorrento Aktiv 79 / 101 40% 2 28.10.2026 -
Oscar Destiny Young Boys Aktiv 85 / 88 40% 2 27.10.2026 -
Juan González Córdoba Aktiv 94 / 98 40% 2 26.10.2026 -
Dominik Kúdelčík Slovan Liberec Aktiv 83 / 96 40% 1 25.10.2026 -
Jhon Azcárate Exeter City Aktiv 76 / 80 40% 1 25.10.2026 -
Martín D'Aurizio Eibar Aktiv 77 / 110 40% 2 24.10.2026 -
Mateo Raschia Unión de Santa Fe Aktiv 97 / 103 40% 1 22.10.2026 -
Felipe Pontoni Talleres Aktiv 79 / 87 40% 2 18.10.2026 -
Ciro Thompson Newell's Old Boys Aktiv 80 / 96 40% 1 15.10.2026 -
Dániel Gazdag Columbus Crew Aktiv 137 / 140 40% 1 14.10.2026 -
Yota Komi Kashiwa Reysol Aktiv 127 / 130 40% 1 12.10.2026 -
Takuma Asano Sanfrecce Hiroshima Aktiv 142 / 129 40% 2 11.10.2026 -
Tomás Chancalay Minnesota United FC Aktiv 136 / 122 40% 1 11.10.2026 -
Brian White Vancouver Whitecaps Aktiv 123 / 121 40% 1 09.10.2026 -
Guilherme Houston Dynamo Aktiv 117 / 128 40% 1 09.10.2026 -
Yusuke Segawa Kashiwa Reysol Aktiv 139 / 136 40% 1 09.10.2026 -
Felipe Igón Racing Club Aktiv 93 / 104 40% 1 09.10.2026 -
Lewis Morgan San Diego Football Club Aktiv 125 / 131 40% 1 06.10.2026 -
Everton Galdino Vegalta Sendai Aktiv 109 / 116 40% 1 06.10.2026 -
Ignacio Coscio Huracán Aktiv 85 / 100 40% 1 06.10.2026 -
Lautaro Vera Platense Aktiv 91 / 104 40% 1 05.10.2026 -
Jan Koutný Sigma Olomouc Aktiv 106 / 110 40% 1 03.10.2026 -
Biola Sabitu Remo Stars Aktiv 83 / 101 40% 3 02.10.2026 -
Veljko Birmančević Ferencvaros Aktiv 141 / 136 40% 1 02.10.2026 Mehr Infos nötig
Duncan McGuire Houston Dynamo Aktiv 116 / 111 40% 1 02.10.2026 -
Quinn Sullivan Philadelphia Union Aktiv 116 / 115 40% 1 02.10.2026 -
Tiziano Delias Sarmiento Aktiv 90 / 101 40% 1 29.09.2026 -
Yuta Goke Vissel Kobe Aktiv 116 / 118 40% 1 28.09.2026 -
Agustín Nogueira Barracas Central Aktiv 86 / 91 40% 2 25.09.2026 -
Sergio González Bunyodkor Aktiv 113 / 106 40% 1 23.09.2026 -
Etiosa Ighodaro Kaizer Chiefs Aktiv 115 / 119 40% 1 23.09.2026 -
Griffin Yow New England Revolution Aktiv 129 / 124 40% 1 23.09.2026 -
Dor Turgeman New England Revolution Aktiv 126 / 141 40% 1 23.09.2026 -
Lucas Sanabria LA Galaxy Aktiv 125 / 129 40% 1 22.09.2026 -
Tobias Bech AGF Aktiv 123 / 129 40% 1 22.09.2026 -
Mikhail Tsulaia Arsenal Tula Aktiv 84 / 110 40% 1 18.09.2026 -
Favour Bala Plateau United Aktiv 79 / 90 40% 1 17.09.2026 -
Rafael Hornos Liverpool Montevideo Aktiv 89 / 91 40% 1 15.09.2026 -
Kornel Miściur Liverpool Aktiv 78 / 107 40% 1 14.09.2026 -
Juan Ignacio Berasi Colón Aktiv 86 / 92 40% 1 13.09.2026 -
Adrián Csenterics Estudiantes de Merida Aktiv 93 / 93 40% 1 10.09.2026 -
Kokoro Kobayashi Vegalta Sendai Aktiv 111 / 116 40% 1 09.09.2026 -
Cheikh Sabaly Vancouver Whitecaps Aktiv 128 / 123 40% 1 09.09.2026 -
True Grant Stoke City Aktiv 81 / 81 40% 1 06.09.2026 -
Max Kerkvliet Real Salt Lake Aktiv 88 / 84 40% 1 06.09.2026 -
Myrto Uzuni Austin FC Aktiv 132 / 129 40% 1 04.09.2026 -
Danny Welbeck Chelsea Aktiv 152 / 151 40% 1 04.09.2026 -
Pep Biel Charlotte Football Club Aktiv 131 / 126 40% 1 04.09.2026 -
Mbekezeli Mbokazi Chicago Fire Aktiv 118 / 140 40% 2 31.08.2026 -
Adam Aznou Everton Aktiv 125 / 130 40% 1 30.08.2026 -
Gonzalo Escudero Racing Club Aktiv 105 / 122 40% 1 30.08.2026 -
Stanley Joseph Remo Stars Aktiv 79 / 87 40% 1 30.08.2026 -
Elías Báez Atlanta United FC Aktiv 129 / 133 40% 2 29.08.2026 -
Sergio Oregel Chicago Fire Aktiv 111 / 107 40% 3 28.08.2026 -
Julián Bazán New York Red Bulls Aktiv 120 / 129 40% 3 28.08.2026 -
Moutaz Neffati IFK Norrkoping Aktiv 106 / 127 40% 1 27.08.2026 -
Luther Phiri SuperSport United Aktiv 114 / 116 40% 1 26.08.2026 -
Leonardo Barroso Chicago Fire Aktiv 116 / 114 40% 1 26.08.2026 -
Tobías Pantoja Central Norte Aktiv 88 / 94 40% 1 26.08.2026 -
Luca Bombino San Diego Football Club Aktiv 105 / 116 40% 1 19.08.2026 -
Lucas Noubi Deportivo La Coruña Aktiv 102 / 117 40% 1 18.08.2026 -
Ryoya Yamashita Gamba Osaka Aktiv 132 / 131 72% 1 17.08.2026 Befürworten
Mauricio Amaro Atlanta United FC Aktiv 110 / 118 40% 1 17.08.2026 -
Juan Segundo Miretti River Plate Aktiv 96 / 111 40% 1 17.08.2026 -
Siyabonga Mabunda FCSB Aktiv 96 / 112 40% 1 15.08.2026 -
Lucas Richarte Temperley Aktiv 102 / 112 40% 1 13.08.2026 -
Kota Tawaratsumida FC Tokyo Aktiv 133 / 136 66% 1 10.08.2026 Befürworten
Máximo Johnston Colón Aktiv 92 / 94 40% 1 03.08.2026 -
Jayce Fitzgerald Manchester United Aktiv 82 / 113 40% 1 01.08.2026 -
Gabriel Otegbayo Sheffield Wednesday Aktiv 105 / 119 40% 1 01.08.2026 -